createdAt,value
2019-04-20T00:02:25.585Z,22.69
2019-04-20T00:04:57.095Z,22.73
2019-04-20T00:07:32.365Z,22.72
2019-04-20T00:10:08.752Z,22.58
2019-04-20T00:15:36.747Z,22.19
2019-04-20T00:18:10.521Z,22.30
2019-04-20T00:20:56.625Z,22.17
2019-04-20T00:23:34.803Z,22.23
2019-04-20T00:26:26.623Z,21.82
2019-04-20T00:29:07.534Z,22.16
2019-04-20T00:31:42.108Z,22.14
2019-04-20T00:34:06.650Z,21.77
2019-04-20T00:36:33.263Z,22.05
2019-04-20T00:39:09.303Z,22.15
2019-04-20T00:41:44.095Z,22.08
2019-04-20T00:44:17.156Z,22.08
2019-04-20T00:46:58.753Z,21.98
2019-04-20T00:49:30.438Z,22.03
2019-04-20T00:52:18.768Z,22.03
2019-04-20T00:54:24.279Z,21.88
2019-04-20T00:57:05.747Z,21.87
2019-04-20T00:59:42.448Z,21.90
2019-04-20T01:02:19.330Z,21.90
2019-04-20T01:04:55.022Z,21.87
2019-04-20T01:07:28.698Z,21.87
2019-04-20T01:10:00.478Z,21.80
2019-04-20T01:12:35.631Z,21.77
2019-04-20T01:15:11.105Z,21.76
2019-04-20T01:17:41.689Z,21.64
2019-04-20T01:20:12.593Z,21.62
2019-04-20T01:22:51.400Z,21.71
2019-04-20T01:25:22.097Z,21.66
2019-04-20T01:28:09.095Z,21.61
2019-04-20T01:30:30.195Z,21.43
2019-04-20T01:33:12.495Z,21.43
2019-04-20T01:35:44.101Z,21.40
2019-04-20T01:38:25.044Z,21.43
2019-04-20T01:40:40.242Z,21.44
2019-04-20T01:43:12.075Z,21.47
2019-04-20T01:45:45.761Z,21.34
2019-04-20T01:48:26.013Z,21.40
2019-04-20T01:51:02.396Z,21.38
2019-04-20T01:53:44.149Z,21.25
2019-04-20T01:56:19.540Z,21.31
2019-04-20T01:59:29.501Z,21.29
2019-04-20T02:02:13.171Z,21.24
2019-04-20T02:04:49.344Z,21.19
2019-04-20T02:07:30.546Z,21.08
2019-04-20T02:09:58.275Z,20.93
2019-04-20T02:12:32.692Z,20.95
2019-04-20T02:15:04.747Z,20.83
2019-04-20T02:17:43.541Z,20.84
2019-04-20T02:20:35.982Z,20.84
2019-04-20T02:23:01.932Z,20.89
2019-04-20T02:25:18.547Z,20.85
2019-04-20T02:28:13.824Z,21.00
2019-04-20T02:31:06.373Z,20.94
2019-04-20T02:33:50.545Z,21.04
2019-04-20T02:36:24.742Z,21.09
2019-04-20T02:41:51.023Z,20.90
2019-04-20T02:47:07.912Z,21.05
2019-04-20T02:52:33.491Z,20.97
2019-04-20T02:54:45.113Z,20.88
2019-04-20T02:57:35.969Z,20.86
2019-04-20T03:00:01.194Z,20.83
2019-04-20T03:02:06.348Z,20.78
2019-04-20T03:04:35.045Z,20.80
2019-04-20T03:07:15.389Z,20.82
2019-04-20T03:09:50.157Z,20.78
2019-04-20T03:12:34.448Z,20.69
2019-04-20T03:14:55.272Z,20.65
2019-04-20T03:17:39.140Z,20.53
2019-04-20T03:19:58.459Z,20.59
2019-04-20T03:23:06.789Z,20.60
2019-04-20T03:25:17.922Z,20.57
2019-04-20T03:27:59.293Z,20.59
2019-04-20T03:33:51.470Z,20.52
2019-04-20T03:36:09.352Z,20.55
2019-04-20T03:38:34.830Z,20.48
2019-04-20T03:40:59.460Z,20.53
2019-04-20T03:43:22.743Z,20.46
2019-04-20T03:46:01.450Z,20.16
2019-04-20T03:48:46.855Z,20.24
2019-04-20T03:51:30.162Z,20.19
2019-04-20T03:54:20.209Z,20.11
2019-04-20T03:57:12.439Z,20.27
2019-04-20T03:59:51.164Z,20.22
2019-04-20T04:02:37.525Z,20.21
2019-04-20T04:05:20.403Z,20.19
2019-04-20T04:07:40.418Z,20.20
2019-04-20T04:10:23.219Z,20.02
2019-04-20T04:13:16.795Z,20.06
2019-04-20T04:15:57.541Z,20.08
2019-04-20T04:18:31.822Z,20.03
2019-04-20T04:21:03.571Z,20.00
2019-04-20T04:23:48.912Z,19.99
2019-04-20T04:26:21.937Z,19.93
2019-04-20T04:28:56.215Z,19.90
2019-04-20T04:31:33.266Z,19.83
2019-04-20T04:34:04.828Z,19.76
2019-04-20T04:36:36.063Z,19.61
2019-04-20T04:39:15.417Z,19.65
2019-04-20T04:41:57.921Z,19.60
2019-04-20T04:44:17.708Z,19.66
2019-04-20T04:46:42.628Z,19.51
2019-04-20T04:49:24.126Z,19.49
2019-04-20T04:51:58.474Z,19.50
2019-04-20T04:54:30.487Z,19.44
2019-04-20T04:56:58.620Z,19.53
2019-04-20T04:59:31.696Z,19.48
2019-04-20T05:02:03.576Z,19.45
2019-04-20T05:05:25.430Z,19.51
2019-04-20T05:07:51.473Z,19.44
2019-04-20T05:10:15.908Z,19.44
2019-04-20T05:12:48.178Z,19.43
2019-04-20T05:15:34.875Z,19.54
2019-04-20T05:18:16.190Z,19.52
2019-04-20T05:20:53.414Z,19.52
2019-04-20T05:24:04.486Z,19.47
2019-04-20T05:26:55.426Z,19.50
2019-04-20T05:29:14.464Z,19.52
2019-04-20T05:31:49.064Z,19.54
2019-04-20T05:34:40.027Z,19.43
2019-04-20T05:37:17.595Z,19.28
2019-04-20T05:39:44.814Z,19.32
2019-04-20T05:42:28.474Z,19.06
2019-04-20T05:45:07.637Z,19.46
2019-04-20T05:47:42.893Z,19.52
2019-04-20T05:50:15.582Z,19.51
2019-04-20T05:53:21.305Z,19.50
2019-04-20T05:55:33.132Z,19.55
2019-04-20T05:58:14.518Z,19.50
2019-04-20T06:00:51.208Z,19.49
2019-04-20T06:03:10.835Z,19.70
2019-04-20T06:05:52.587Z,19.72
2019-04-20T06:08:29.842Z,19.81
2019-04-20T06:10:49.388Z,19.84
2019-04-20T06:13:27.781Z,19.88
2019-04-20T06:16:12.885Z,19.84
2019-04-20T06:19:09.577Z,19.76
2019-04-20T06:21:37.656Z,19.96
2019-04-20T06:24:27.835Z,19.99
2019-04-20T06:26:59.469Z,20.22
2019-04-20T06:29:21.941Z,20.23
2019-04-20T06:32:05.162Z,20.15
2019-04-20T06:37:01.005Z,20.44
2019-04-20T06:42:14.868Z,20.65
2019-04-20T06:44:46.437Z,20.75
2019-04-20T06:47:18.904Z,20.82
2019-04-20T06:49:56.500Z,20.84
2019-04-20T06:52:45.312Z,20.87
2019-04-20T06:55:19.789Z,20.87
2019-04-20T06:57:54.765Z,21.00
2019-04-20T07:00:22.859Z,21.00
2019-04-20T07:03:01.825Z,21.10
2019-04-20T07:05:43.732Z,21.11
2019-04-20T07:08:37.327Z,21.09
2019-04-20T07:10:58.343Z,21.18
2019-04-20T07:13:18.898Z,21.22
2019-04-20T07:16:18.475Z,21.02
2019-04-20T07:19:06.206Z,21.03
2019-04-20T07:22:10.578Z,20.99
2019-04-20T07:24:35.071Z,20.88
2019-04-20T07:27:03.110Z,20.86
2019-04-20T07:29:40.787Z,20.76
2019-04-20T07:32:07.586Z,20.85
2019-04-20T07:34:41.376Z,20.89
2019-04-20T07:39:58.916Z,20.86
2019-04-20T07:42:37.714Z,20.84
2019-04-20T07:45:13.505Z,21.01
2019-04-20T07:47:46.641Z,20.99
2019-04-20T07:50:12.052Z,21.02
2019-04-20T07:52:39.638Z,21.27
2019-04-20T07:57:52.793Z,21.61
2019-04-20T08:00:44.820Z,21.12
2019-04-20T08:03:33.699Z,21.76
2019-04-20T08:06:15.659Z,22.04
2019-04-20T08:08:55.877Z,22.17
2019-04-20T08:11:28.778Z,22.31
2019-04-20T08:14:13.339Z,22.36
2019-04-20T08:16:47.106Z,22.63
2019-04-20T08:19:08.201Z,22.90
2019-04-20T08:21:48.449Z,22.97
2019-04-20T08:24:17.091Z,23.04
2019-04-20T08:26:38.917Z,23.20
2019-04-20T08:29:41.688Z,23.06
2019-04-20T08:32:31.240Z,23.36
2019-04-20T08:35:05.587Z,23.38
2019-04-20T08:37:40.060Z,23.41
2019-04-20T08:40:12.066Z,23.67
2019-04-20T08:42:59.693Z,23.94
2019-04-20T08:45:24.108Z,23.99
2019-04-20T08:47:56.840Z,23.79
2019-04-20T08:50:29.610Z,24.22
2019-04-20T08:53:20.481Z,24.46
2019-04-20T08:55:33.424Z,24.50
2019-04-20T08:57:51.488Z,24.48
2019-04-20T09:00:30.863Z,24.29
2019-04-20T09:03:04.760Z,24.44
2019-04-20T09:05:42.422Z,24.85
2019-04-20T09:08:13.535Z,24.56
2019-04-20T09:10:59.820Z,24.84
2019-04-20T09:13:24.590Z,25.01
2019-04-20T09:15:49.691Z,25.22
2019-04-20T09:18:39.080Z,25.16
2019-04-20T09:21:15.149Z,25.49
2019-04-20T09:23:57.707Z,25.64
2019-04-20T09:26:32.360Z,25.65
2019-04-20T09:29:04.079Z,25.76
2019-04-20T09:31:43.550Z,25.86
2019-04-20T09:34:51.198Z,25.88
2019-04-20T09:37:20.361Z,26.08
2019-04-20T09:39:53.315Z,25.74
2019-04-20T09:42:31.838Z,25.97
2019-04-20T09:45:06.261Z,26.24
2019-04-20T09:47:46.482Z,26.35
2019-04-20T09:50:32.498Z,26.46
2019-04-20T09:53:03.200Z,25.93
2019-04-20T09:55:33.771Z,26.49
2019-04-20T09:58:11.298Z,26.65
2019-04-20T10:00:53.888Z,26.88
2019-04-20T10:03:16.611Z,26.94
2019-04-20T10:05:49.651Z,27.46
2019-04-20T10:08:21.844Z,27.54
2019-04-20T10:10:54.357Z,27.79
2019-04-20T10:13:27.415Z,27.47
2019-04-20T10:15:59.735Z,27.68
2019-04-20T10:18:41.335Z,28.03
2019-04-20T10:21:09.679Z,27.16
2019-04-20T10:23:42.827Z,27.37
2019-04-20T10:26:14.439Z,27.75
2019-04-20T10:28:47.708Z,27.25
2019-04-20T10:31:18.371Z,27.89
2019-04-20T10:33:53.520Z,28.44
2019-04-20T10:36:43.717Z,28.80
2019-04-20T10:39:18.336Z,29.06
2019-04-20T10:41:54.323Z,29.21
2019-04-20T10:44:23.068Z,29.45
2019-04-20T10:46:54.669Z,29.76
2019-04-20T10:49:29.144Z,29.95
2019-04-20T10:52:00.404Z,30.14
2019-04-20T10:54:32.347Z,30.31
2019-04-20T10:57:04.133Z,30.48
2019-04-20T10:59:35.602Z,30.35
2019-04-20T11:02:07.892Z,30.36
2019-04-20T11:04:40.912Z,30.63
2019-04-20T11:07:12.495Z,30.87
2019-04-20T11:09:43.109Z,31.10
2019-04-20T11:12:14.604Z,30.32
2019-04-20T11:14:50.249Z,31.18
2019-04-20T11:17:22.407Z,31.13
2019-04-20T11:19:59.240Z,31.28
2019-04-20T11:22:30.770Z,31.41
2019-04-20T11:25:04.285Z,32.11
2019-04-20T11:27:36.364Z,32.30
2019-04-20T11:30:09.945Z,32.67
2019-04-20T11:32:44.308Z,32.88
2019-04-20T11:35:25.431Z,32.49
2019-04-20T11:37:51.334Z,32.72
2019-04-20T11:40:23.312Z,31.66
2019-04-20T11:42:55.381Z,31.98
2019-04-20T11:45:28.735Z,32.51
2019-04-20T11:47:59.135Z,32.17
2019-04-20T11:50:33.683Z,32.52
2019-04-20T11:53:03.888Z,33.08
2019-04-20T11:55:36.622Z,31.99
2019-04-20T11:58:08.349Z,32.64
2019-04-20T12:00:53.898Z,32.85
2019-04-20T12:03:47.879Z,32.75
2019-04-20T12:06:08.672Z,33.65
2019-04-20T12:08:41.905Z,34.08
2019-04-20T12:11:26.528Z,34.57
2019-04-20T12:13:46.849Z,34.37
2019-04-20T12:16:19.365Z,34.77
2019-04-20T12:18:52.511Z,34.95
2019-04-20T12:21:26.499Z,35.27
2019-04-20T12:24:02.396Z,35.71
2019-04-20T12:26:56.546Z,35.66
2019-04-20T12:29:27.925Z,35.41
2019-04-20T12:32:02.332Z,36.02
2019-04-20T12:34:33.071Z,36.24
2019-04-20T12:37:05.100Z,36.48
2019-04-20T12:39:37.334Z,36.60
2019-04-20T12:42:10.084Z,36.12
2019-04-20T12:44:42.147Z,36.17
2019-04-20T12:47:14.806Z,36.31
2019-04-20T12:49:45.460Z,36.57
2019-04-20T12:52:19.160Z,36.97
2019-04-20T12:54:52.540Z,36.99
2019-04-20T12:57:24.705Z,37.34
2019-04-20T12:59:55.039Z,37.30
2019-04-20T13:02:27.250Z,37.38
2019-04-20T13:04:57.751Z,37.45
2019-04-20T13:07:40.564Z,37.90
2019-04-20T13:10:05.806Z,37.82
2019-04-20T13:12:58.512Z,37.75
2019-04-20T13:16:00.525Z,37.81
2019-04-20T13:18:41.221Z,38.29
2019-04-20T13:21:13.396Z,38.58
2019-04-20T13:23:45.233Z,39.00
2019-04-20T13:26:17.369Z,39.75
2019-04-20T13:28:50.893Z,40.27
2019-04-20T13:31:22.161Z,40.84
2019-04-20T13:33:52.859Z,40.45
2019-04-20T13:36:24.188Z,41.15
2019-04-20T13:38:59.978Z,41.77
2019-04-20T13:41:31.705Z,42.45
2019-04-20T13:44:04.790Z,43.28
2019-04-20T13:46:36.719Z,43.97
2019-04-20T13:49:11.154Z,44.83
2019-04-20T13:51:42.190Z,45.46
2019-04-20T13:54:20.549Z,45.93
2019-04-20T13:56:50.037Z,45.81
2019-04-20T13:59:41.929Z,46.81
2019-04-20T14:02:30.913Z,47.59
2019-04-20T14:05:04.637Z,47.90
2019-04-20T14:07:37.905Z,49.14
2019-04-20T14:10:09.250Z,49.41
2019-04-20T14:12:53.369Z,49.79
2019-04-20T14:15:13.253Z,50.37
2019-04-20T14:17:44.848Z,50.97
2019-04-20T14:20:20.179Z,51.30
2019-04-20T14:22:49.824Z,51.58
2019-04-20T14:25:21.338Z,51.69
2019-04-20T14:27:52.932Z,51.75
2019-04-20T14:30:24.806Z,52.11
2019-04-20T14:32:56.799Z,52.41
2019-04-20T14:35:29.251Z,51.38
2019-04-20T14:38:01.767Z,50.96
2019-04-20T14:40:32.526Z,51.19
2019-04-20T14:43:03.431Z,51.36
2019-04-20T14:45:34.390Z,51.14
2019-04-20T14:48:05.838Z,50.50
2019-04-20T14:50:38.813Z,49.51
2019-04-20T14:53:09.864Z,48.77
2019-04-20T14:55:43.766Z,47.43
2019-04-20T14:58:37.910Z,47.22
2019-04-20T15:01:24.703Z,46.60
2019-04-20T15:03:59.862Z,46.51
2019-04-20T15:06:29.747Z,46.48
2019-04-20T15:09:06.453Z,46.24
2019-04-20T15:11:41.736Z,46.48
2019-04-20T15:14:14.826Z,46.40
2019-04-20T15:16:46.778Z,46.95
2019-04-20T15:19:31.899Z,47.31
2019-04-20T15:22:05.517Z,47.81
2019-04-20T15:24:37.701Z,48.35
2019-04-20T15:27:10.249Z,47.63
2019-04-20T15:29:44.278Z,46.30
2019-04-20T15:32:18.723Z,44.54
2019-04-20T15:34:50.878Z,42.97
2019-04-20T15:37:23.420Z,41.45
2019-04-20T15:39:54.937Z,40.23
2019-04-20T15:42:33.445Z,39.14
2019-04-20T15:45:07.570Z,38.28
2019-04-20T15:47:50.075Z,37.60
2019-04-20T15:50:22.605Z,36.75
2019-04-20T15:53:02.658Z,36.17
2019-04-20T15:55:37.933Z,35.52
2019-04-20T15:58:12.452Z,35.06
2019-04-20T16:00:46.676Z,34.54
2019-04-20T16:03:29.662Z,34.20
2019-04-20T16:06:03.429Z,33.87
2019-04-20T16:08:38.934Z,33.43
2019-04-20T16:11:13.322Z,33.15
2019-04-20T16:13:50.015Z,32.95
2019-04-20T16:16:21.548Z,32.95
2019-04-20T16:18:55.196Z,32.85
2019-04-20T16:21:33.856Z,32.51
2019-04-20T16:24:15.151Z,32.37
2019-04-20T16:27:27.704Z,32.26
2019-04-20T16:30:05.506Z,31.76
2019-04-20T16:32:36.826Z,31.66
2019-04-20T16:35:12.483Z,31.48
2019-04-20T16:37:44.663Z,31.21
2019-04-20T16:40:17.684Z,31.07
2019-04-20T16:42:52.148Z,31.18
2019-04-20T16:45:23.406Z,30.70
2019-04-20T16:48:00.469Z,30.58
2019-04-20T16:50:35.126Z,30.39
2019-04-20T16:53:10.686Z,30.31
2019-04-20T16:55:45.129Z,30.09
2019-04-20T16:58:18.265Z,30.12
2019-04-20T17:00:50.093Z,29.92
2019-04-20T17:03:27.882Z,29.98
2019-04-20T17:05:56.146Z,29.99
2019-04-20T17:08:29.214Z,29.89
2019-04-20T17:11:01.834Z,29.78
2019-04-20T17:13:43.124Z,29.56
2019-04-20T17:16:10.285Z,29.48
2019-04-20T17:18:41.442Z,29.47
2019-04-20T17:21:16.595Z,29.42
2019-04-20T17:23:47.321Z,29.47
2019-04-20T17:26:32.767Z,29.35
2019-04-20T17:29:12.169Z,29.39
2019-04-20T17:31:58.556Z,29.07
2019-04-20T17:34:44.000Z,29.15
2019-04-20T17:37:04.551Z,28.98
2019-04-20T17:40:01.732Z,29.10
2019-04-20T17:42:26.447Z,29.02
2019-04-20T17:44:53.038Z,28.94
2019-04-20T17:47:41.803Z,28.87
2019-04-20T17:50:10.871Z,28.96
2019-04-20T17:52:49.606Z,28.96
2019-04-20T17:55:24.047Z,28.66
2019-04-20T17:57:43.942Z,28.72
2019-04-20T18:00:22.510Z,28.73
2019-04-20T18:03:12.351Z,28.70
2019-04-20T18:06:01.147Z,28.75
2019-04-20T18:08:35.610Z,28.74
2019-04-20T18:11:02.055Z,28.71
2019-04-20T18:13:30.309Z,28.64
2019-04-20T18:16:22.427Z,28.66
2019-04-20T18:19:00.266Z,28.63
2019-04-20T18:21:30.733Z,28.55
2019-04-20T18:24:05.226Z,28.51
2019-04-20T18:26:52.062Z,28.40
2019-04-20T18:29:32.520Z,28.31
2019-04-20T18:32:01.869Z,28.24
2019-04-20T18:34:58.402Z,28.20
2019-04-20T18:37:27.353Z,28.08
2019-04-20T18:40:06.165Z,28.10
2019-04-20T18:42:38.863Z,28.02
2019-04-20T18:45:26.713Z,27.91
2019-04-20T18:48:06.319Z,27.76
2019-04-20T18:50:30.536Z,27.56
2019-04-20T18:52:57.930Z,27.43
2019-04-20T18:55:40.698Z,27.53
2019-04-20T18:58:01.532Z,27.42
2019-04-20T19:00:44.484Z,27.45
2019-04-20T19:03:20.497Z,27.37
2019-04-20T19:05:51.407Z,27.42
2019-04-20T19:08:33.769Z,27.29
2019-04-20T19:11:04.097Z,27.30
2019-04-20T19:13:47.479Z,27.15
2019-04-20T19:16:53.882Z,27.14
2019-04-20T19:19:24.540Z,27.18
2019-04-20T19:22:08.012Z,27.15
2019-04-20T19:24:43.636Z,27.05
2019-04-20T19:27:17.090Z,27.03
2019-04-20T19:29:56.510Z,27.03
2019-04-20T19:32:38.272Z,26.93
2019-04-20T19:35:01.619Z,26.93
2019-04-20T19:37:34.596Z,26.95
2019-04-20T19:40:10.890Z,26.81
2019-04-20T19:42:47.921Z,26.76
2019-04-20T19:45:41.005Z,26.69
2019-04-20T19:47:54.686Z,26.52
2019-04-20T19:53:12.534Z,26.42
2019-04-20T19:55:31.354Z,26.37
2019-04-20T19:58:09.707Z,26.32
2019-04-20T20:00:51.366Z,26.30
2019-04-20T20:03:19.824Z,26.20
2019-04-20T20:05:54.819Z,26.06
2019-04-20T20:08:29.928Z,25.75
2019-04-20T20:11:03.023Z,25.88
2019-04-20T20:13:41.194Z,25.90
2019-04-20T20:16:14.449Z,25.84
2019-04-20T20:18:53.359Z,25.72
2019-04-20T20:21:24.802Z,25.59
2019-04-20T20:23:48.147Z,25.34
2019-04-20T20:26:31.294Z,25.40
2019-04-20T20:29:09.268Z,25.20
2019-04-20T20:31:51.378Z,25.29
2019-04-20T20:34:15.767Z,25.07
2019-04-20T20:36:47.129Z,25.19
2019-04-20T20:39:21.377Z,25.19
2019-04-20T20:41:58.071Z,25.11
2019-04-20T20:44:31.772Z,25.08
2019-04-20T20:47:05.564Z,25.03
2019-04-20T20:49:56.801Z,25.05
2019-04-20T20:52:26.218Z,25.13
2019-04-20T20:54:51.437Z,25.02
2019-04-20T20:57:18.699Z,25.08
2019-04-20T20:59:55.518Z,25.12
2019-04-20T21:02:33.689Z,25.18
2019-04-20T21:04:55.472Z,25.18
2019-04-20T21:07:26.987Z,25.09
2019-04-20T21:09:58.933Z,25.00
2019-04-20T21:12:30.573Z,25.04
2019-04-20T21:15:10.639Z,24.93
2019-04-20T21:17:41.733Z,24.99
2019-04-20T21:20:33.143Z,25.06
2019-04-20T21:23:00.370Z,25.01
2019-04-20T21:25:40.770Z,24.97
2019-04-20T21:28:08.913Z,25.06
2019-04-20T21:30:43.697Z,24.98
2019-04-20T21:33:15.011Z,25.00
2019-04-20T21:35:49.994Z,24.89
2019-04-20T21:38:20.215Z,24.88
2019-04-20T21:41:02.239Z,24.87
2019-04-20T21:43:29.976Z,24.77
2019-04-20T21:46:01.755Z,24.79
2019-04-20T21:48:46.694Z,24.75
2019-04-20T21:51:21.218Z,24.69
2019-04-20T21:53:37.808Z,24.70
2019-04-20T21:56:10.196Z,24.74
2019-04-20T21:58:49.630Z,24.65
2019-04-20T22:01:25.393Z,24.59
2019-04-20T22:03:52.372Z,24.53
2019-04-20T22:06:24.466Z,24.56
2019-04-20T22:09:00.065Z,24.48
2019-04-20T22:11:29.921Z,24.51
2019-04-20T22:14:10.771Z,24.51
2019-04-20T22:16:41.731Z,24.48
2019-04-20T22:19:20.924Z,24.45
2019-04-20T22:21:53.406Z,24.30
2019-04-20T22:24:36.945Z,24.20
2019-04-20T22:27:03.103Z,24.06
2019-04-20T22:29:24.000Z,24.10
2019-04-20T22:32:00.463Z,24.10
2019-04-20T22:34:29.860Z,23.96
2019-04-20T22:37:02.261Z,23.91
2019-04-20T22:39:43.237Z,23.98
2019-04-20T22:42:13.342Z,23.97
2019-04-20T22:44:48.001Z,23.98
2019-04-20T22:47:21.948Z,23.99
2019-04-20T22:50:14.057Z,23.95
2019-04-20T22:52:34.858Z,23.99
2019-04-20T22:55:20.983Z,23.90
2019-04-20T22:57:44.775Z,23.87
2019-04-20T23:00:10.276Z,23.80
2019-04-20T23:02:37.112Z,23.75
2019-04-20T23:05:10.860Z,23.73
2019-04-20T23:07:42.390Z,23.67
2019-04-20T23:10:20.276Z,23.60
2019-04-20T23:12:53.296Z,23.47
2019-04-20T23:15:22.820Z,23.39
2019-04-20T23:17:54.060Z,23.46
2019-04-20T23:20:31.802Z,23.40
2019-04-20T23:23:00.785Z,23.33
2019-04-20T23:25:35.216Z,23.45
2019-04-20T23:28:13.480Z,23.31
2019-04-20T23:30:43.662Z,23.34
2019-04-20T23:33:16.043Z,23.29
2019-04-20T23:35:54.201Z,22.89
2019-04-20T23:38:24.220Z,23.11
2019-04-20T23:40:55.669Z,23.33
2019-04-20T23:43:38.784Z,23.38
2019-04-20T23:46:31.394Z,23.41
2019-04-20T23:49:27.242Z,23.23
2019-04-20T23:52:21.504Z,23.18
2019-04-20T23:54:30.250Z,22.72
2019-04-20T23:57:01.680Z,22.92
2019-04-20T23:59:41.082Z,22.95
